sensor_id;sensor_type;location;lat;lon;timestamp;temperature;humidity
39219;DHT22;24934;52.752;6.964;2023-05-02T00:00:38;11.40;99.90
39219;DHT22;24934;52.752;6.964;2023-05-02T00:03:04;11.40;99.90
39219;DHT22;24934;52.752;6.964;2023-05-02T00:05:30;11.40;99.90
39219;DHT22;24934;52.752;6.964;2023-05-02T00:07:56;11.40;99.90
39219;DHT22;24934;52.752;6.964;2023-05-02T00:10:21;11.40;99.90
39219;DHT22;24934;52.752;6.964;2023-05-02T00:12:47;11.50;99.90
39219;DHT22;24934;52.752;6.964;2023-05-02T00:15:13;11.50;99.90
39219;DHT22;24934;52.752;6.964;2023-05-02T00:17:40;11.50;99.90
39219;DHT22;24934;52.752;6.964;2023-05-02T00:20:09;11.50;99.90
39219;DHT22;24934;52.752;6.964;2023-05-02T00:22:36;11.50;99.90
39219;DHT22;24934;52.752;6.964;2023-05-02T00:25:01;11.50;99.90
39219;DHT22;24934;52.752;6.964;2023-05-02T00:27:29;11.50;99.90
39219;DHT22;24934;52.752;6.964;2023-05-02T00:29:54;11.50;99.90
39219;DHT22;24934;52.752;6.964;2023-05-02T00:32:20;11.50;99.90
39219;DHT22;24934;52.752;6.964;2023-05-02T00:34:46;11.40;99.90
39219;DHT22;24934;52.752;6.964;2023-05-02T00:37:11;11.50;99.90
39219;DHT22;24934;52.752;6.964;2023-05-02T00:39:38;11.40;99.90
39219;DHT22;24934;52.752;6.964;2023-05-02T00:42:03;11.40;99.90
39219;DHT22;24934;52.752;6.964;2023-05-02T00:44:29;11.40;99.90
39219;DHT22;24934;52.752;6.964;2023-05-02T00:46:55;11.40;99.90
39219;DHT22;24934;52.752;6.964;2023-05-02T00:49:21;11.40;99.90
39219;DHT22;24934;52.752;6.964;2023-05-02T00:51:47;11.30;99.90
39219;DHT22;24934;52.752;6.964;2023-05-02T00:54:13;11.10;99.90
39219;DHT22;24934;52.752;6.964;2023-05-02T00:56:39;11.00;99.90
39219;DHT22;24934;52.752;6.964;2023-05-02T00:59:07;10.90;99.90
39219;DHT22;24934;52.752;6.964;2023-05-02T01:04:31;10.70;99.90
39219;DHT22;24934;52.752;6.964;2023-05-02T01:07:20;10.70;99.90
39219;DHT22;24934;52.752;6.964;2023-05-02T01:13:07;10.40;99.90
39219;DHT22;24934;52.752;6.964;2023-05-02T01:15:37;10.30;99.90
39219;DHT22;24934;52.752;6.964;2023-05-02T01:18:04;10.20;99.90
39219;DHT22;24934;52.752;6.964;2023-05-02T01:20:32;10.20;99.90
39219;DHT22;24934;52.752;6.964;2023-05-02T01:23:05;10.10;99.90
39219;DHT22;24934;52.752;6.964;2023-05-02T01:25:57;10.00;99.90
39219;DHT22;24934;52.752;6.964;2023-05-02T01:28:35;10.00;99.90
39219;DHT22;24934;52.752;6.964;2023-05-02T01:31:04;10.00;99.90
39219;DHT22;24934;52.752;6.964;2023-05-02T01:33:31;9.90;99.90
39219;DHT22;24934;52.752;6.964;2023-05-02T01:35:58;9.90;99.90
39219;DHT22;24934;52.752;6.964;2023-05-02T01:38:25;9.80;99.90
39219;DHT22;24934;52.752;6.964;2023-05-02T01:40:52;9.80;99.90
39219;DHT22;24934;52.752;6.964;2023-05-02T01:43:20;9.70;99.90
39219;DHT22;24934;52.752;6.964;2023-05-02T01:45:48;9.50;99.90
39219;DHT22;24934;52.752;6.964;2023-05-02T01:48:15;9.50;99.90
39219;DHT22;24934;52.752;6.964;2023-05-02T01:50:44;9.40;99.90
39219;DHT22;24934;52.752;6.964;2023-05-02T01:53:11;9.40;99.90
39219;DHT22;24934;52.752;6.964;2023-05-02T01:55:40;9.30;99.90
39219;DHT22;24934;52.752;6.964;2023-05-02T01:58:08;9.30;99.90
39219;DHT22;24934;52.752;6.964;2023-05-02T02:00:35;9.20;99.90
39219;DHT22;24934;52.752;6.964;2023-05-02T02:03:05;9.20;99.90
39219;DHT22;24934;52.752;6.964;2023-05-02T02:05:36;9.20;99.90
39219;DHT22;24934;52.752;6.964;2023-05-02T02:08:02;9.20;99.90
39219;DHT22;24934;52.752;6.964;2023-05-02T02:10:31;9.20;99.90
39219;DHT22;24934;52.752;6.964;2023-05-02T02:13:05;9.20;99.90
39219;DHT22;24934;52.752;6.964;2023-05-02T02:15:34;9.20;99.90
39219;DHT22;24934;52.752;6.964;2023-05-02T02:18:01;9.30;99.90
39219;DHT22;24934;52.752;6.964;2023-05-02T02:20:28;9.30;99.90
39219;DHT22;24934;52.752;6.964;2023-05-02T02:22:57;9.30;99.90
39219;DHT22;24934;52.752;6.964;2023-05-02T02:25:25;9.30;99.90
39219;DHT22;24934;52.752;6.964;2023-05-02T02:27:53;9.30;99.90
39219;DHT22;24934;52.752;6.964;2023-05-02T02:30:19;9.20;99.90
39219;DHT22;24934;52.752;6.964;2023-05-02T02:32:45;9.20;99.90
39219;DHT22;24934;52.752;6.964;2023-05-02T02:35:10;9.20;99.90
39219;DHT22;24934;52.752;6.964;2023-05-02T02:37:51;9.20;99.90
39219;DHT22;24934;52.752;6.964;2023-05-02T02:40:33;9.10;99.90
39219;DHT22;24934;52.752;6.964;2023-05-02T02:43:19;9.10;99.90
39219;DHT22;24934;52.752;6.964;2023-05-02T02:51:28;9.20;99.90
39219;DHT22;24934;52.752;6.964;2023-05-02T02:54:12;9.20;99.90
39219;DHT22;24934;52.752;6.964;2023-05-02T02:56:44;9.20;99.90
39219;DHT22;24934;52.752;6.964;2023-05-02T02:59:25;9.20;99.90
39219;DHT22;24934;52.752;6.964;2023-05-02T03:02:08;9.30;99.90
39219;DHT22;24934;52.752;6.964;2023-05-02T03:04:38;9.30;99.90
39219;DHT22;24934;52.752;6.964;2023-05-02T03:07:05;9.30;99.90
39219;DHT22;24934;52.752;6.964;2023-05-02T03:09:44;9.30;99.90
39219;DHT22;24934;52.752;6.964;2023-05-02T03:12:13;9.30;99.90
39219;DHT22;24934;52.752;6.964;2023-05-02T03:14:40;9.20;99.90
39219;DHT22;24934;52.752;6.964;2023-05-02T03:17:06;8.90;99.90
39219;DHT22;24934;52.752;6.964;2023-05-02T03:19:33;8.80;99.90
39219;DHT22;24934;52.752;6.964;2023-05-02T03:21:58;8.60;99.90
39219;DHT22;24934;52.752;6.964;2023-05-02T03:24:24;8.40;99.90
39219;DHT22;24934;52.752;6.964;2023-05-02T03:26:54;8.30;99.90
39219;DHT22;24934;52.752;6.964;2023-05-02T03:29:21;8.10;99.90
39219;DHT22;24934;52.752;6.964;2023-05-02T03:31:47;8.00;99.90
39219;DHT22;24934;52.752;6.964;2023-05-02T03:34:12;7.90;99.90
39219;DHT22;24934;52.752;6.964;2023-05-02T03:36:38;7.80;99.90
39219;DHT22;24934;52.752;6.964;2023-05-02T03:39:04;7.70;99.90
39219;DHT22;24934;52.752;6.964;2023-05-02T03:41:34;7.70;99.90
39219;DHT22;24934;52.752;6.964;2023-05-02T03:43:59;7.60;99.90
39219;DHT22;24934;52.752;6.964;2023-05-02T03:46:25;7.50;99.90
39219;DHT22;24934;52.752;6.964;2023-05-02T03:48:50;7.50;99.90
39219;DHT22;24934;52.752;6.964;2023-05-02T03:51:16;7.50;99.90
39219;DHT22;24934;52.752;6.964;2023-05-02T03:53:47;7.40;99.90
39219;DHT22;24934;52.752;6.964;2023-05-02T03:56:16;7.30;99.90
39219;DHT22;24934;52.752;6.964;2023-05-02T03:58:44;7.30;99.90
39219;DHT22;24934;52.752;6.964;2023-05-02T04:01:14;7.30;99.90
39219;DHT22;24934;52.752;6.964;2023-05-02T04:03:40;7.30;99.90
39219;DHT22;24934;52.752;6.964;2023-05-02T04:06:06;7.20;99.90
39219;DHT22;24934;52.752;6.964;2023-05-02T04:08:34;7.20;99.90
39219;DHT22;24934;52.752;6.964;2023-05-02T04:10:59;7.20;99.90
39219;DHT22;24934;52.752;6.964;2023-05-02T04:13:25;7.10;99.90
39219;DHT22;24934;52.752;6.964;2023-05-02T04:15:50;7.00;99.90
39219;DHT22;24934;52.752;6.964;2023-05-02T04:18:16;7.00;99.90
39219;DHT22;24934;52.752;6.964;2023-05-02T04:20:42;7.00;99.90
39219;DHT22;24934;52.752;6.964;2023-05-02T04:23:11;6.90;99.90
39219;DHT22;24934;52.752;6.964;2023-05-02T04:25:55;6.90;99.90
39219;DHT22;24934;52.752;6.964;2023-05-02T04:28:21;6.90;99.90
39219;DHT22;24934;52.752;6.964;2023-05-02T04:30:48;6.90;99.90
39219;DHT22;24934;52.752;6.964;2023-05-02T04:33:14;6.90;99.90
39219;DHT22;24934;52.752;6.964;2023-05-02T04:35:40;7.00;99.90
39219;DHT22;24934;52.752;6.964;2023-05-02T04:38:06;7.00;99.90
39219;DHT22;24934;52.752;6.964;2023-05-02T04:40:35;7.00;99.90
39219;DHT22;24934;52.752;6.964;2023-05-02T04:43:00;7.00;99.90
39219;DHT22;24934;52.752;6.964;2023-05-02T04:45:27;7.00;99.90
39219;DHT22;24934;52.752;6.964;2023-05-02T04:47:52;6.80;99.90
39219;DHT22;24934;52.752;6.964;2023-05-02T04:50:18;6.80;99.90
39219;DHT22;24934;52.752;6.964;2023-05-02T04:52:44;6.80;99.90
39219;DHT22;24934;52.752;6.964;2023-05-02T04:55:09;6.80;99.90
39219;DHT22;24934;52.752;6.964;2023-05-02T04:57:38;6.90;99.90
39219;DHT22;24934;52.752;6.964;2023-05-02T05:00:05;6.80;99.90
39219;DHT22;24934;52.752;6.964;2023-05-02T05:02:30;6.90;99.90
39219;DHT22;24934;52.752;6.964;2023-05-02T05:04:56;6.90;99.90
39219;DHT22;24934;52.752;6.964;2023-05-02T05:07:22;6.90;99.90
39219;DHT22;24934;52.752;6.964;2023-05-02T05:09:50;6.90;99.90
39219;DHT22;24934;52.752;6.964;2023-05-02T05:12:16;6.90;99.90
39219;DHT22;24934;52.752;6.964;2023-05-02T05:14:42;6.90;99.90
39219;DHT22;24934;52.752;6.964;2023-05-02T05:17:08;7.00;99.90
39219;DHT22;24934;52.752;6.964;2023-05-02T05:19:34;7.00;99.90
39219;DHT22;24934;52.752;6.964;2023-05-02T05:22:00;7.10;99.90
39219;DHT22;24934;52.752;6.964;2023-05-02T05:24:28;7.10;99.90
39219;DHT22;24934;52.752;6.964;2023-05-02T05:26:54;7.10;99.90
39219;DHT22;24934;52.752;6.964;2023-05-02T05:29:20;7.10;99.90
39219;DHT22;24934;52.752;6.964;2023-05-02T05:31:45;7.20;99.90
39219;DHT22;24934;52.752;6.964;2023-05-02T05:34:12;7.20;99.90
39219;DHT22;24934;52.752;6.964;2023-05-02T05:36:39;7.20;99.90
39219;DHT22;24934;52.752;6.964;2023-05-02T05:39:06;7.30;99.90
39219;DHT22;24934;52.752;6.964;2023-05-02T05:41:32;7.30;99.90
39219;DHT22;24934;52.752;6.964;2023-05-02T05:43:58;7.30;99.90
39219;DHT22;24934;52.752;6.964;2023-05-02T05:46:24;7.30;99.90
39219;DHT22;24934;52.752;6.964;2023-05-02T05:48:52;7.40;99.90
39219;DHT22;24934;52.752;6.964;2023-05-02T05:51:18;7.40;99.90
39219;DHT22;24934;52.752;6.964;2023-05-02T05:53:44;7.40;99.90
39219;DHT22;24934;52.752;6.964;2023-05-02T05:56:12;7.40;99.90
39219;DHT22;24934;52.752;6.964;2023-05-02T05:58:38;7.40;99.90
39219;DHT22;24934;52.752;6.964;2023-05-02T06:01:05;7.50;99.90
39219;DHT22;24934;52.752;6.964;2023-05-02T06:03:30;7.50;99.90
39219;DHT22;24934;52.752;6.964;2023-05-02T06:05:56;7.50;99.90
39219;DHT22;24934;52.752;6.964;2023-05-02T06:08:22;7.60;99.90
39219;DHT22;24934;52.752;6.964;2023-05-02T06:10:50;7.60;99.90
39219;DHT22;24934;52.752;6.964;2023-05-02T06:13:15;7.60;99.90
39219;DHT22;24934;52.752;6.964;2023-05-02T06:15:41;7.60;99.90
39219;DHT22;24934;52.752;6.964;2023-05-02T06:18:07;7.70;99.90
39219;DHT22;24934;52.752;6.964;2023-05-02T06:20:35;7.80;99.90
39219;DHT22;24934;52.752;6.964;2023-05-02T06:23:01;7.90;99.90
39219;DHT22;24934;52.752;6.964;2023-05-02T06:25:26;8.00;99.90
39219;DHT22;24934;52.752;6.964;2023-05-02T06:27:54;7.90;99.90
39219;DHT22;24934;52.752;6.964;2023-05-02T06:30:22;8.00;99.90
39219;DHT22;24934;52.752;6.964;2023-05-02T06:32:48;8.10;99.90
39219;DHT22;24934;52.752;6.964;2023-05-02T06:35:14;8.20;99.90
39219;DHT22;24934;52.752;6.964;2023-05-02T06:37:40;8.30;99.90
39219;DHT22;24934;52.752;6.964;2023-05-02T06:40:06;8.60;99.90
39219;DHT22;24934;52.752;6.964;2023-05-02T06:42:34;8.80;99.90
39219;DHT22;24934;52.752;6.964;2023-05-02T06:45:00;9.20;99.90
39219;DHT22;24934;52.752;6.964;2023-05-02T06:47:25;9.50;99.90
39219;DHT22;24934;52.752;6.964;2023-05-02T06:49:52;9.60;99.90
39219;DHT22;24934;52.752;6.964;2023-05-02T06:52:18;9.70;99.90
39219;DHT22;24934;52.752;6.964;2023-05-02T06:54:43;9.70;99.90
39219;DHT22;24934;52.752;6.964;2023-05-02T06:57:09;9.80;99.90
39219;DHT22;24934;52.752;6.964;2023-05-02T06:59:35;9.70;99.90
39219;DHT22;24934;52.752;6.964;2023-05-02T07:02:01;9.50;99.90
39219;DHT22;24934;52.752;6.964;2023-05-02T07:04:27;9.40;99.90
39219;DHT22;24934;52.752;6.964;2023-05-02T07:06:52;9.30;99.90
39219;DHT22;24934;52.752;6.964;2023-05-02T07:09:18;9.10;99.90
39219;DHT22;24934;52.752;6.964;2023-05-02T07:11:44;9.00;99.90
39219;DHT22;24934;52.752;6.964;2023-05-02T07:14:09;8.90;99.90
39219;DHT22;24934;52.752;6.964;2023-05-02T07:16:35;8.90;99.90
39219;DHT22;24934;52.752;6.964;2023-05-02T07:19:01;8.90;99.90
39219;DHT22;24934;52.752;6.964;2023-05-02T07:21:29;8.80;99.90
39219;DHT22;24934;52.752;6.964;2023-05-02T07:23:54;8.90;99.90
39219;DHT22;24934;52.752;6.964;2023-05-02T07:26:24;9.00;99.90
39219;DHT22;24934;52.752;6.964;2023-05-02T07:28:54;9.10;99.90
39219;DHT22;24934;52.752;6.964;2023-05-02T07:31:20;9.10;99.90
39219;DHT22;24934;52.752;6.964;2023-05-02T07:33:46;9.10;99.90
39219;DHT22;24934;52.752;6.964;2023-05-02T07:36:14;9.20;99.90
39219;DHT22;24934;52.752;6.964;2023-05-02T07:38:40;9.20;99.90
39219;DHT22;24934;52.752;6.964;2023-05-02T07:41:06;9.10;99.90
39219;DHT22;24934;52.752;6.964;2023-05-02T07:43:31;9.00;99.90
39219;DHT22;24934;52.752;6.964;2023-05-02T07:45:57;9.10;99.90
39219;DHT22;24934;52.752;6.964;2023-05-02T07:48:23;9.10;99.90
39219;DHT22;24934;52.752;6.964;2023-05-02T07:50:53;9.30;99.90
39219;DHT22;24934;52.752;6.964;2023-05-02T07:53:21;9.40;99.90
39219;DHT22;24934;52.752;6.964;2023-05-02T07:55:47;9.60;99.90
39219;DHT22;24934;52.752;6.964;2023-05-02T07:58:13;9.50;99.90
39219;DHT22;24934;52.752;6.964;2023-05-02T08:00:46;9.60;99.90
39219;DHT22;24934;52.752;6.964;2023-05-02T08:03:12;9.60;99.90
39219;DHT22;24934;52.752;6.964;2023-05-02T08:05:41;9.60;99.90
39219;DHT22;24934;52.752;6.964;2023-05-02T08:08:06;9.70;99.90
39219;DHT22;24934;52.752;6.964;2023-05-02T08:10:32;9.80;99.90
39219;DHT22;24934;52.752;6.964;2023-05-02T08:12:58;9.80;99.90
39219;DHT22;24934;52.752;6.964;2023-05-02T08:15:23;9.90;99.90
39219;DHT22;24934;52.752;6.964;2023-05-02T08:17:52;9.70;99.90
39219;DHT22;24934;52.752;6.964;2023-05-02T08:20:18;9.90;99.90
39219;DHT22;24934;52.752;6.964;2023-05-02T08:22:46;10.00;99.90
39219;DHT22;24934;52.752;6.964;2023-05-02T08:25:20;10.30;99.90
39219;DHT22;24934;52.752;6.964;2023-05-02T08:27:46;10.50;99.90
39219;DHT22;24934;52.752;6.964;2023-05-02T08:30:15;10.70;99.90
39219;DHT22;24934;52.752;6.964;2023-05-02T08:32:41;11.00;99.90
39219;DHT22;24934;52.752;6.964;2023-05-02T08:35:06;11.20;99.90
39219;DHT22;24934;52.752;6.964;2023-05-02T08:37:32;11.50;99.90
39219;DHT22;24934;52.752;6.964;2023-05-02T08:39:59;11.70;99.90
39219;DHT22;24934;52.752;6.964;2023-05-02T08:42:25;11.90;99.90
39219;DHT22;24934;52.752;6.964;2023-05-02T08:44:51;11.80;99.90
39219;DHT22;24934;52.752;6.964;2023-05-02T08:47:18;12.00;99.90
39219;DHT22;24934;52.752;6.964;2023-05-02T08:49:44;12.10;99.90
39219;DHT22;24934;52.752;6.964;2023-05-02T08:52:11;12.20;99.90
39219;DHT22;24934;52.752;6.964;2023-05-02T08:54:37;12.90;99.90
39219;DHT22;24934;52.752;6.964;2023-05-02T08:57:04;13.30;99.90
39219;DHT22;24934;52.752;6.964;2023-05-02T08:59:30;14.50;99.90
39219;DHT22;24934;52.752;6.964;2023-05-02T09:02:46;15.10;99.90
39219;DHT22;24934;52.752;6.964;2023-05-02T09:05:19;16.40;99.90
39219;DHT22;24934;52.752;6.964;2023-05-02T09:07:51;18.50;97.20
39219;DHT22;24934;52.752;6.964;2023-05-02T09:10:17;18.00;92.50
39219;DHT22;24934;52.752;6.964;2023-05-02T09:12:43;17.40;93.60
39219;DHT22;24934;52.752;6.964;2023-05-02T09:15:09;16.30;92.90
39219;DHT22;24934;52.752;6.964;2023-05-02T09:17:42;15.40;94.50
39219;DHT22;24934;52.752;6.964;2023-05-02T09:20:13;14.70;95.60
39219;DHT22;24934;52.752;6.964;2023-05-02T09:22:50;14.20;95.90
39219;DHT22;24934;52.752;6.964;2023-05-02T09:25:16;14.00;96.60
39219;DHT22;24934;52.752;6.964;2023-05-02T09:27:55;13.60;97.90
39219;DHT22;24934;52.752;6.964;2023-05-02T09:30:25;13.30;98.90
39219;DHT22;24934;52.752;6.964;2023-05-02T09:32:51;13.30;99.90
39219;DHT22;24934;52.752;6.964;2023-05-02T09:35:19;12.90;99.40
39219;DHT22;24934;52.752;6.964;2023-05-02T09:37:56;12.90;99.90
39219;DHT22;24934;52.752;6.964;2023-05-02T09:40:22;13.30;99.90
39219;DHT22;24934;52.752;6.964;2023-05-02T09:42:49;13.50;99.90
39219;DHT22;24934;52.752;6.964;2023-05-02T09:45:27;13.30;99.90
39219;DHT22;24934;52.752;6.964;2023-05-02T09:47:52;13.20;99.90
39219;DHT22;24934;52.752;6.964;2023-05-02T09:50:34;12.80;99.90
39219;DHT22;24934;52.752;6.964;2023-05-02T09:53:06;12.20;99.90
39219;DHT22;24934;52.752;6.964;2023-05-02T09:55:31;12.10;99.90
39219;DHT22;24934;52.752;6.964;2023-05-02T09:57:58;12.20;99.90
39219;DHT22;24934;52.752;6.964;2023-05-02T10:00:41;12.10;99.90
39219;DHT22;24934;52.752;6.964;2023-05-02T10:03:07;11.60;99.90
39219;DHT22;24934;52.752;6.964;2023-05-02T10:05:38;11.80;99.90
39219;DHT22;24934;52.752;6.964;2023-05-02T10:08:05;11.90;99.90
39219;DHT22;24934;52.752;6.964;2023-05-02T10:10:34;11.80;99.90
39219;DHT22;24934;52.752;6.964;2023-05-02T10:13:02;11.80;99.90
39219;DHT22;24934;52.752;6.964;2023-05-02T10:15:30;11.60;99.90
39219;DHT22;24934;52.752;6.964;2023-05-02T10:17:58;11.70;99.90
39219;DHT22;24934;52.752;6.964;2023-05-02T10:20:33;11.80;99.90
39219;DHT22;24934;52.752;6.964;2023-05-02T10:23:00;11.70;99.90
39219;DHT22;24934;52.752;6.964;2023-05-02T10:25:27;11.70;99.90
39219;DHT22;24934;52.752;6.964;2023-05-02T10:27:55;11.70;99.90
39219;DHT22;24934;52.752;6.964;2023-05-02T10:30:23;11.60;99.90
39219;DHT22;24934;52.752;6.964;2023-05-02T10:32:51;11.50;99.90
39219;DHT22;24934;52.752;6.964;2023-05-02T10:35:18;11.30;99.90
39219;DHT22;24934;52.752;6.964;2023-05-02T10:37:44;11.30;99.90
39219;DHT22;24934;52.752;6.964;2023-05-02T10:40:11;11.40;99.90
39219;DHT22;24934;52.752;6.964;2023-05-02T10:42:39;11.50;99.90
39219;DHT22;24934;52.752;6.964;2023-05-02T10:45:28;11.70;99.90
39219;DHT22;24934;52.752;6.964;2023-05-02T10:48:14;11.80;99.90
39219;DHT22;24934;52.752;6.964;2023-05-02T10:50:50;12.00;99.90
39219;DHT22;24934;52.752;6.964;2023-05-02T10:53:33;12.70;99.90
39219;DHT22;24934;52.752;6.964;2023-05-02T10:56:17;13.20;99.90
39219;DHT22;24934;52.752;6.964;2023-05-02T10:58:49;14.10;99.90
39219;DHT22;24934;52.752;6.964;2023-05-02T11:04:07;15.50;97.40
39219;DHT22;24934;52.752;6.964;2023-05-02T11:11:56;14.70;96.60
39219;DHT22;24934;52.752;6.964;2023-05-02T11:24:51;14.60;97.70
39219;DHT22;24934;52.752;6.964;2023-05-02T11:30:07;14.30;98.50
39219;DHT22;24934;52.752;6.964;2023-05-02T11:35:20;14.00;99.30
39219;DHT22;24934;52.752;6.964;2023-05-02T11:38:00;13.80;98.10
39219;DHT22;24934;52.752;6.964;2023-05-02T11:40:28;13.20;99.90
39219;DHT22;24934;52.752;6.964;2023-05-02T11:42:54;13.00;99.10
39219;DHT22;24934;52.752;6.964;2023-05-02T11:45:20;12.50;99.90
39219;DHT22;24934;52.752;6.964;2023-05-02T11:47:49;12.70;99.90
39219;DHT22;24934;52.752;6.964;2023-05-02T11:50:16;13.00;99.90
39219;DHT22;24934;52.752;6.964;2023-05-02T11:52:43;13.40;99.90
39219;DHT22;24934;52.752;6.964;2023-05-02T11:55:11;13.60;99.90
39219;DHT22;24934;52.752;6.964;2023-05-02T11:57:38;13.80;99.90
39219;DHT22;24934;52.752;6.964;2023-05-02T12:00:05;13.80;99.90
39219;DHT22;24934;52.752;6.964;2023-05-02T12:02:38;13.50;99.90
39219;DHT22;24934;52.752;6.964;2023-05-02T12:05:06;13.50;99.90
39219;DHT22;24934;52.752;6.964;2023-05-02T12:07:45;14.10;99.90
39219;DHT22;24934;52.752;6.964;2023-05-02T12:10:16;14.60;99.70
39219;DHT22;24934;52.752;6.964;2023-05-02T12:12:43;14.60;99.30
39219;DHT22;24934;52.752;6.964;2023-05-02T12:15:10;14.30;99.70
39219;DHT22;24934;52.752;6.964;2023-05-02T12:17:39;14.20;99.90
39219;DHT22;24934;52.752;6.964;2023-05-02T12:20:14;13.70;99.90
39219;DHT22;24934;52.752;6.964;2023-05-02T12:22:41;13.30;99.90
39219;DHT22;24934;52.752;6.964;2023-05-02T12:25:07;12.90;99.90
39219;DHT22;24934;52.752;6.964;2023-05-02T12:27:33;12.70;99.90
39219;DHT22;24934;52.752;6.964;2023-05-02T12:29:59;12.40;99.90
39219;DHT22;24934;52.752;6.964;2023-05-02T12:32:30;12.20;99.90
39219;DHT22;24934;52.752;6.964;2023-05-02T12:34:59;12.10;99.90
39219;DHT22;24934;52.752;6.964;2023-05-02T12:37:26;12.10;99.90
39219;DHT22;24934;52.752;6.964;2023-05-02T12:39:53;12.10;99.90
39219;DHT22;24934;52.752;6.964;2023-05-02T12:42:22;12.10;99.90
39219;DHT22;24934;52.752;6.964;2023-05-02T12:44:49;12.20;99.90
39219;DHT22;24934;52.752;6.964;2023-05-02T12:47:19;12.20;99.90
39219;DHT22;24934;52.752;6.964;2023-05-02T12:49:59;12.50;99.90
39219;DHT22;24934;52.752;6.964;2023-05-02T12:52:50;12.60;99.90
39219;DHT22;24934;52.752;6.964;2023-05-02T12:55:23;12.80;99.90
39219;DHT22;24934;52.752;6.964;2023-05-02T12:57:49;12.60;99.90
39219;DHT22;24934;52.752;6.964;2023-05-02T13:00:16;12.70;99.90
39219;DHT22;24934;52.752;6.964;2023-05-02T13:02:42;12.40;99.90
39219;DHT22;24934;52.752;6.964;2023-05-02T13:05:18;12.30;99.90
39219;DHT22;24934;52.752;6.964;2023-05-02T13:07:44;12.40;99.90
39219;DHT22;24934;52.752;6.964;2023-05-02T13:10:10;12.40;99.90
39219;DHT22;24934;52.752;6.964;2023-05-02T13:12:36;12.50;99.90
39219;DHT22;24934;52.752;6.964;2023-05-02T13:15:07;12.70;99.90
39219;DHT22;24934;52.752;6.964;2023-05-02T13:17:33;12.90;99.90
39219;DHT22;24934;52.752;6.964;2023-05-02T13:19:59;12.90;99.90
39219;DHT22;24934;52.752;6.964;2023-05-02T13:22:26;12.60;99.90
39219;DHT22;24934;52.752;6.964;2023-05-02T13:24:52;12.20;99.90
39219;DHT22;24934;52.752;6.964;2023-05-02T13:27:18;12.20;99.90
39219;DHT22;24934;52.752;6.964;2023-05-02T13:29:44;12.10;99.90
39219;DHT22;24934;52.752;6.964;2023-05-02T13:32:10;12.20;99.90
39219;DHT22;24934;52.752;6.964;2023-05-02T13:34:36;12.30;99.90
39219;DHT22;24934;52.752;6.964;2023-05-02T13:37:02;12.50;99.90
39219;DHT22;24934;52.752;6.964;2023-05-02T13:39:28;12.70;99.90
39219;DHT22;24934;52.752;6.964;2023-05-02T13:41:53;12.70;99.90
39219;DHT22;24934;52.752;6.964;2023-05-02T13:44:19;12.80;99.90
39219;DHT22;24934;52.752;6.964;2023-05-02T13:46:45;13.00;99.90
39219;DHT22;24934;52.752;6.964;2023-05-02T13:49:12;13.10;99.90
39219;DHT22;24934;52.752;6.964;2023-05-02T13:51:38;12.70;99.90
39219;DHT22;24934;52.752;6.964;2023-05-02T13:54:03;12.30;99.90
39219;DHT22;24934;52.752;6.964;2023-05-02T13:56:29;12.20;99.90
39219;DHT22;24934;52.752;6.964;2023-05-02T13:58:55;12.10;99.90
39219;DHT22;24934;52.752;6.964;2023-05-02T14:01:21;12.30;99.90
39219;DHT22;24934;52.752;6.964;2023-05-02T14:03:47;12.10;99.90
39219;DHT22;24934;52.752;6.964;2023-05-02T14:06:15;12.00;99.90
39219;DHT22;24934;52.752;6.964;2023-05-02T14:08:40;12.10;99.90
39219;DHT22;24934;52.752;6.964;2023-05-02T14:11:06;12.00;99.90
39219;DHT22;24934;52.752;6.964;2023-05-02T14:13:32;11.90;99.90
39219;DHT22;24934;52.752;6.964;2023-05-02T14:15:58;11.90;99.90
39219;DHT22;24934;52.752;6.964;2023-05-02T14:18:24;11.90;99.90
39219;DHT22;24934;52.752;6.964;2023-05-02T14:20:50;11.50;99.90
39219;DHT22;24934;52.752;6.964;2023-05-02T14:23:16;11.60;99.90
39219;DHT22;24934;52.752;6.964;2023-05-02T14:25:41;11.70;99.90
39219;DHT22;24934;52.752;6.964;2023-05-02T14:28:09;12.00;99.90
39219;DHT22;24934;52.752;6.964;2023-05-02T14:30:35;12.10;99.90
39219;DHT22;24934;52.752;6.964;2023-05-02T14:33:01;12.40;99.90
39219;DHT22;24934;52.752;6.964;2023-05-02T14:35:29;12.60;99.90
39219;DHT22;24934;52.752;6.964;2023-05-02T14:37:55;12.90;99.90
39219;DHT22;24934;52.752;6.964;2023-05-02T14:40:20;12.90;99.90
39219;DHT22;24934;52.752;6.964;2023-05-02T14:42:46;13.20;99.90
39219;DHT22;24934;52.752;6.964;2023-05-02T14:45:12;13.30;99.90
39219;DHT22;24934;52.752;6.964;2023-05-02T14:47:38;13.40;99.90
39219;DHT22;24934;52.752;6.964;2023-05-02T14:50:06;13.00;99.90
39219;DHT22;24934;52.752;6.964;2023-05-02T14:52:32;12.90;99.90
39219;DHT22;24934;52.752;6.964;2023-05-02T14:54:59;12.70;99.90
39219;DHT22;24934;52.752;6.964;2023-05-02T14:57:25;12.80;99.90
39219;DHT22;24934;52.752;6.964;2023-05-02T14:59:50;12.90;99.90
39219;DHT22;24934;52.752;6.964;2023-05-02T15:02:16;12.70;99.90
39219;DHT22;24934;52.752;6.964;2023-05-02T15:04:42;12.60;99.90
39219;DHT22;24934;52.752;6.964;2023-05-02T15:07:08;12.70;99.90
39219;DHT22;24934;52.752;6.964;2023-05-02T15:09:34;12.60;99.90
39219;DHT22;24934;52.752;6.964;2023-05-02T15:11:59;12.60;99.90
39219;DHT22;24934;52.752;6.964;2023-05-02T15:14:25;12.40;99.90
39219;DHT22;24934;52.752;6.964;2023-05-02T15:16:51;12.50;99.90
39219;DHT22;24934;52.752;6.964;2023-05-02T15:19:17;12.10;99.90
39219;DHT22;24934;52.752;6.964;2023-05-02T15:21:44;12.10;99.90
39219;DHT22;24934;52.752;6.964;2023-05-02T15:24:10;12.20;99.90
39219;DHT22;24934;52.752;6.964;2023-05-02T15:26:36;12.30;99.90
39219;DHT22;24934;52.752;6.964;2023-05-02T15:29:02;12.30;99.90
39219;DHT22;24934;52.752;6.964;2023-05-02T15:31:28;12.30;99.90
39219;DHT22;24934;52.752;6.964;2023-05-02T15:33:56;12.30;99.90
39219;DHT22;24934;52.752;6.964;2023-05-02T15:36:26;12.20;99.90
39219;DHT22;24934;52.752;6.964;2023-05-02T15:38:53;11.90;99.90
39219;DHT22;24934;52.752;6.964;2023-05-02T15:41:23;11.60;99.90
39219;DHT22;24934;52.752;6.964;2023-05-02T15:43:50;11.50;99.90
39219;DHT22;24934;52.752;6.964;2023-05-02T15:46:18;11.40;99.90
39219;DHT22;24934;52.752;6.964;2023-05-02T15:48:43;11.40;99.90
39219;DHT22;24934;52.752;6.964;2023-05-02T15:51:09;11.40;99.90
39219;DHT22;24934;52.752;6.964;2023-05-02T15:53:38;11.50;99.90
39219;DHT22;24934;52.752;6.964;2023-05-02T15:56:13;11.30;99.90
39219;DHT22;24934;52.752;6.964;2023-05-02T15:58:39;11.30;99.90
39219;DHT22;24934;52.752;6.964;2023-05-02T16:01:05;11.30;99.90
39219;DHT22;24934;52.752;6.964;2023-05-02T16:03:31;11.20;99.90
39219;DHT22;24934;52.752;6.964;2023-05-02T16:05:57;11.20;99.90
39219;DHT22;24934;52.752;6.964;2023-05-02T16:08:24;11.20;99.90
39219;DHT22;24934;52.752;6.964;2023-05-02T16:10:50;11.20;99.90
39219;DHT22;24934;52.752;6.964;2023-05-02T16:13:16;11.20;99.90
39219;DHT22;24934;52.752;6.964;2023-05-02T16:15:42;11.30;99.90
39219;DHT22;24934;52.752;6.964;2023-05-02T16:18:07;11.20;99.90